Aeroporto :
LOGIN :

Iscrizione | Disclaimer

   EN    FR    IT 

 










Sommario :    VFR   VFR Marginale   IFR   IFR Intensivo   IFR Molto Intensivo
Visibilità : 
Base nubi : 
>= 8 km
>= 3000ft
5 / 8 km
1000 / 3000 ft
1500m / 5 km
500 / 1000 ft
800 / 1500m
200 / 500 ft
< 800m
< 200 ft
Simboli :   Temporali  Nebbia  Neve Forte  Precipitazioni Forti  Vento > 20 kt
SIGMETs :   Varie  Temporali  Ghiacco  Turbolenza  Onda orograficha  Ceneri Vulcaniche







- Altitudine del aeroporto : 49 ft
- Codice IATA : GLZ


EHGR - Gilze-Rijen Airbase

ULTIMO METAR :
  • 240756Z AUTO 17012KT 130V200 9999 FEW130 20/10 Q0997 BLU 17012KT CAVOK

METARs OBSOLETI :
  • 240725Z AUTO 16008KT 120V200 9999 OVC120 17/10 Q0997 BLU 15008KT CAVOK
  • 240655Z AUTO 15008KT 120V180 9999 SCT077 BKN085 BKN091 16/10 Q0997 BLU 15008KT CAVOK
  • 240645Z AUTO 14007KT 110V170 9999 SCT077 SCT082 OVC110 16/10 Q0997 BLU 15008KT CAVOK
  • 240625Z AUTO 14007KT 110V170 9999 SCT079 OVC100 15/10 Q0997 BLU
  • 240555Z AUTO 13004KT 9999 FEW093 OVC100 13/10 Q0997 BLU
  • 240525Z AUTO 15004KT 9999 FEW100 12/09 Q0997 BLU

TAF TAF EHGR
Valido dal 24 a 05 ore il 24 a 17 ore UTC


240421Z 2405/2417 15005KT CAVOK
BECMG 2406/2409 16010KT
TEMPO 2409/2417 16015G25KT
TEMPO 2416/2417 17016G29KT 4800 -SHRA SCT045CB BKN070
PROB30
TEMPO 2416/2417 17018G35KT 2500 TSRAGS FEW025 SCT030CB BKN070
Nessun NOTAM noto per questo aeroporto.



MetMap, La meteo Aeronautica in un colpo d'occhio ! - Copyright ORBIFLY Dicembre 2007 - Disclaimer

ORBIFLY MET'MAP TEAM :

Programmazione e sviluppo : Alexandra Zaïnal
Concezione e sviluppo : Baudouin d'Aumeries
Co-Programmazione e sviluppo : Marc-Olivier Méhu
Supporto tecnico e logistico : Manuel Goepfert
Aiuto per la traduzione : Arnaldo La Scala

Contatto : metmap@orbifly.com




FONTI E CREDITI :

   NOAA